Terminal Aerodrome Forecast
Issued by NWS

Home | Current Version | Previous Version | Text Only | Print | Product List | Glossary On
Versions: 1 2 3 4 5 6 7 8 9 10 11 12 13 14 15 16 17 18 19 20 21 22 23 24 25 26 27 28 29 30
233
FTUS42 KCAE 211726
TAFDNL
TAF
KDNL 211726Z 2118/2218 13007KT P6SM SCT020 BKN035
     FM220300 12004KT 6SM BR OVC015
     FM220600 10003KT 1SM BR OVC004
     FM221600 12007KT P6SM BKN015=

USA.gov is the U.S. government's official web portal to all federal, state and local government web resources and services.